Time;durP1;ratioP1;P1;durP2;ratioP2;P2;SDS_P1;SDS_P2;PMS_P1;PMS_P2;Temp;Humidity;BMP_temperature;BMP_pressure;BME280_temperature;BME280_humidity;BME280_pressure;Samples;Min_cycle;Max_cycle;Signal;HPM_P1;HPM_P2
2022/09/29 00:00:12;;;;;;;2.80;2.42;;;7.00;99.90;;;;;;4910251;29;20068;-82
2022/09/29 00:02:39;;;;;;;2.80;2.53;;;7.00;99.90;;;;;;4926730;29;20492;-83
2022/09/29 00:05:05;;;;;;;4.65;1.70;;;6.80;99.90;;;;;;4914200;29;20040;-83
2022/09/29 00:07:31;;;;;;;8.52;1.83;;;6.90;99.90;;;;;;4930209;29;20431;-82
2022/09/29 00:09:57;;;;;;;45.45;2.90;;;6.90;99.90;;;;;;4948092;28;20090;-82
2022/09/29 00:12:23;;;;;;;1.75;1.58;;;7.00;99.90;;;;;;4937044;29;20063;-83
2022/09/29 00:14:49;;;;;;;3.70;1.70;;;6.90;99.90;;;;;;4933678;29;20046;-83
2022/09/29 00:17:15;;;;;;;2.30;1.80;;;6.90;99.90;;;;;;4916387;29;20047;-83
2022/09/29 00:19:40;;;;;;;2.25;1.75;;;6.90;99.90;;;;;;4935419;29;20598;-83
2022/09/29 00:22:06;;;;;;;1.65;1.55;;;6.80;99.90;;;;;;4900516;29;20112;-82
2022/09/29 00:24:31;;;;;;;4.30;1.38;;;6.70;99.90;;;;;;4916262;29;20388;-82
2022/09/29 00:26:57;;;;;;;1.60;1.50;;;6.70;99.90;;;;;;4916303;29;20043;-83
2022/09/29 00:29:23;;;;;;;1.52;1.38;;;6.70;99.90;;;;;;4919480;29;20098;-84
2022/09/29 00:31:48;;;;;;;2.78;1.48;;;6.70;99.90;;;;;;4912658;29;20058;-84
2022/09/29 00:34:14;;;;;;;2.03;1.80;;;6.60;99.90;;;;;;4929365;29;20047;-84
2022/09/29 00:36:40;;;;;;;1.27;1.17;;;6.70;99.90;;;;;;4914971;29;20511;-83
2022/09/29 00:39:06;;;;;;;1.73;1.63;;;6.60;99.90;;;;;;4932211;29;20078;-83
2022/09/29 00:41:34;;;;;;;3.30;3.00;;;6.60;99.90;;;;;;4934558;29;20687;-83
2022/09/29 00:44:04;;;;;;;4.70;3.33;;;6.70;99.90;;;;;;4935798;29;20047;-82
2022/09/29 00:46:37;;;;;;;4.50;4.10;;;6.70;99.90;;;;;;4915902;29;20044;-82
2022/09/29 00:49:27;;;;;;;4.53;4.15;;;7.00;99.90;;;;;;4934258;29;20105;-82
2022/09/29 00:52:04;;;;;;;4.63;4.22;;;6.80;99.90;;;;;;4925588;29;20076;-83
2022/09/29 00:54:37;;;;;;;6.45;3.78;;;6.90;99.90;;;;;;4912495;29;20519;-83
2022/09/29 00:57:04;;;;;;;4.13;3.72;;;6.90;99.90;;;;;;4935541;29;20040;-83
2022/09/29 00:59:45;;;;;;;5.13;3.60;;;6.90;99.90;;;;;;4903211;29;20046;-83
2022/09/29 01:02:12;;;;;;;5.45;3.50;;;6.80;99.90;;;;;;4948741;28;20043;-83
2022/09/29 01:04:39;;;;;;;7.85;2.75;;;6.80;99.90;;;;;;4902022;29;20048;-84
2022/09/29 01:07:06;;;;;;;3.22;2.92;;;6.80;99.90;;;;;;4925258;29;20043;-83
2022/09/29 01:09:36;;;;;;;3.70;3.40;;;6.80;99.90;;;;;;4914696;29;20040;-83
2022/09/29 01:12:02;;;;;;;3.10;2.80;;;6.80;99.90;;;;;;4912933;29;20051;-83
2022/09/29 01:14:29;;;;;;;4.45;2.38;;;6.80;99.90;;;;;;4924718;29;20044;-85
2022/09/29 01:16:55;;;;;;;3.67;3.38;;;6.80;99.90;;;;;;4927350;29;20216;-85
2022/09/29 01:19:35;;;;;;;2.58;2.38;;;6.70;99.90;;;;;;4912557;29;20075;-85
2022/09/29 01:22:32;;;;;;;4.10;3.20;;;6.70;99.90;;;;;;4938388;28;20048;-85
2022/09/29 01:25:36;;;;;;;4.05;3.10;;;6.60;99.90;;;;;;4927190;29;20480;-85
2022/09/29 01:28:20;;;;;;;4.03;3.13;;;6.60;99.90;;;;;;4920075;29;20131;-85
2022/09/29 01:31:01;;;;;;;4.43;4.03;;;6.60;99.90;;;;;;4929752;29;20099;-85
2022/09/29 01:34:00;;;;;;;7.50;2.80;;;6.50;99.90;;;;;;4931310;29;20062;-85
2022/09/29 01:36:43;;;;;;;26.52;4.47;;;6.40;99.90;;;;;;4925887;29;20036;-85
2022/09/29 01:39:42;;;;;;;38.70;4.05;;;6.40;99.90;;;;;;4926415;29;20118;-86
2022/09/29 01:42:10;;;;;;;30.67;3.60;;;6.30;99.90;;;;;;4939072;28;20086;-84
2022/09/29 01:44:47;;;;;;;2.58;2.38;;;6.10;99.90;;;;;;4931960;29;20035;-85
2022/09/29 01:47:18;;;;;;;4.68;2.60;;;6.20;99.90;;;;;;4907106;29;20044;-84
2022/09/29 01:49:49;;;;;;;3.33;2.50;;;6.00;99.90;;;;;;4917412;29;20466;-85
2022/09/29 01:52:18;;;;;;;2.55;2.35;;;6.00;99.90;;;;;;4928724;29;20064;-85
2022/09/29 01:54:52;;;;;;;3.28;2.80;;;6.00;99.90;;;;;;4909497;29;20031;-84
2022/09/29 01:57:36;;;;;;;5.90;3.35;;;6.00;99.90;;;;;;4923994;29;20110;-85
2022/09/29 02:00:11;;;;;;;4.32;3.38;;;6.00;99.90;;;;;;4928357;29;20031;-85
2022/09/29 02:03:08;;;;;;;3.88;3.25;;;6.00;99.90;;;;;;4928203;29;20047;-85
2022/09/29 02:06:00;;;;;;;3.20;2.80;;;6.00;99.90;;;;;;4930356;29;20047;-85
2022/09/29 02:08:35;;;;;;;2.20;2.10;;;5.90;99.90;;;;;;4912096;29;20059;-85
2022/09/29 02:11:06;;;;;;;7.60;1.15;;;5.90;99.90;;;;;;4926886;29;20063;-85
2022/09/29 02:13:39;;;;;;;20.77;1.77;;;5.90;99.90;;;;;;4926656;29;20040;-84
2022/09/29 02:16:09;;;;;;;39.85;2.00;;;5.80;99.90;;;;;;4927202;29;20040;-82
2022/09/29 02:18:42;;;;;;;103.88;3.92;;;5.70;99.90;;;;;;4932654;29;20869;-82
2022/09/29 02:21:08;;;;;;;52.45;2.63;;;5.60;99.90;;;;;;4928378;29;20047;-82
2022/09/29 02:23:34;;;;;;;7.50;1.13;;;5.50;99.90;;;;;;4913650;29;20408;-82
2022/09/29 02:26:02;;;;;;;38.08;2.45;;;5.50;99.90;;;;;;4927482;29;20055;-82
2022/09/29 02:28:28;;;;;;;1.80;1.40;;;5.40;99.90;;;;;;4922900;29;20059;-82
2022/09/29 02:30:54;;;;;;;1.35;1.25;;;5.40;99.90;;;;;;4914170;29;20090;-82
2022/09/29 02:33:22;;;;;;;4.22;2.38;;;5.40;99.90;;;;;;4931717;29;20832;-82
2022/09/29 02:36:04;;;;;;;4.18;2.50;;;5.40;99.90;;;;;;4916478;29;20496;-82
2022/09/29 02:38:42;;;;;;;2.72;2.53;;;5.50;99.90;;;;;;4931059;29;20411;-82
2022/09/29 02:41:30;;;;;;;4.93;2.67;;;5.50;99.90;;;;;;4932758;29;20360;-82
2022/09/29 02:44:05;;;;;;;2.70;2.50;;;5.50;99.90;;;;;;4941115;28;20436;-82
2022/09/29 02:46:42;;;;;;;2.60;2.28;;;5.60;99.90;;;;;;4915140;29;20527;-82
2022/09/29 02:49:19;;;;;;;2.22;1.73;;;5.60;99.90;;;;;;4932249;29;20055;-82
2022/09/29 02:51:57;;;;;;;8.43;1.70;;;5.50;99.90;;;;;;4915228;29;20094;-82
2022/09/29 02:54:41;;;;;;;12.63;1.80;;;5.50;99.90;;;;;;4914443;29;20067;-84
2022/09/29 02:57:16;;;;;;;52.83;3.03;;;5.50;99.90;;;;;;4933116;29;20070;-82
2022/09/29 02:59:54;;;;;;;33.55;2.63;;;5.70;99.90;;;;;;4930261;29;20082;-82
2022/09/29 03:02:24;;;;;;;34.78;2.83;;;5.20;99.90;;;;;;4914589;29;20122;-82
2022/09/29 03:04:51;;;;;;;47.78;3.70;;;5.10;99.90;;;;;;4931327;29;20071;-83
2022/09/29 03:07:16;;;;;;;54.03;4.15;;;5.10;99.90;;;;;;4899380;29;20476;-82
2022/09/29 03:09:43;;;;;;;21.38;3.15;;;5.10;99.90;;;;;;4914814;29;20138;-84
2022/09/29 03:12:08;;;;;;;62.92;4.90;;;5.20;99.90;;;;;;4913572;29;20067;-82
2022/09/29 03:14:34;;;;;;;95.75;5.50;;;5.20;99.90;;;;;;4933032;29;20047;-82
2022/09/29 03:16:59;;;;;;;61.20;5.07;;;5.20;99.90;;;;;;4915280;29;20048;-82
2022/09/29 03:19:25;;;;;;;85.65;4.28;;;5.20;99.90;;;;;;4913049;29;20046;-83
2022/09/29 03:21:51;;;;;;;147.43;5.68;;;5.20;99.90;;;;;;4934139;29;20075;-82
2022/09/29 03:24:16;;;;;;;27.48;2.85;;;5.10;99.90;;;;;;4931717;29;20059;-83
2022/09/29 03:26:42;;;;;;;23.77;3.28;;;5.10;99.90;;;;;;4931473;29;20062;-82
2022/09/29 03:29:07;;;;;;;21.77;3.50;;;5.10;99.90;;;;;;4933908;29;20039;-85
2022/09/29 03:31:33;;;;;;;15.60;3.13;;;5.10;99.90;;;;;;4929083;29;20135;-85
2022/09/29 03:33:58;;;;;;;24.05;2.58;;;5.20;99.90;;;;;;4911227;29;20104;-85
2022/09/29 03:36:24;;;;;;;31.05;2.95;;;5.20;99.90;;;;;;4916377;29;20091;-82
2022/09/29 03:38:50;;;;;;;9.55;2.03;;;5.10;99.90;;;;;;4927121;29;20050;-83
2022/09/29 03:41:15;;;;;;;3.90;2.00;;;5.10;99.90;;;;;;4909758;29;20039;-82
2022/09/29 03:43:41;;;;;;;6.25;2.20;;;5.10;99.90;;;;;;4914507;29;20039;-82
2022/09/29 03:46:07;;;;;;;46.83;5.18;;;5.10;99.90;;;;;;4933872;29;20058;-82
2022/09/29 03:48:34;;;;;;;11.88;1.90;;;5.00;99.90;;;;;;4901460;29;20412;-83
2022/09/29 03:50:59;;;;;;;10.02;2.55;;;5.10;99.90;;;;;;4919769;29;20518;-82
2022/09/29 03:53:25;;;;;;;18.10;3.42;;;5.10;99.90;;;;;;4900682;29;20043;-83
2022/09/29 03:55:51;;;;;;;45.45;5.00;;;5.10;99.90;;;;;;4901596;29;20184;-84
2022/09/29 03:58:17;;;;;;;35.92;5.30;;;5.10;99.90;;;;;;4929180;29;20050;-83
2022/09/29 04:00:43;;;;;;;12.90;4.45;;;5.10;99.90;;;;;;4929904;29;20411;-84
2022/09/29 04:03:09;;;;;;;35.65;4.53;;;5.10;99.90;;;;;;4942751;28;20046;-84
2022/09/29 04:05:37;;;;;;;62.78;5.78;;;5.20;99.90;;;;;;4923862;29;20040;-84
2022/09/29 04:08:06;;;;;;;88.95;5.13;;;5.20;99.90;;;;;;4930837;29;20512;-83
2022/09/29 04:10:36;;;;;;;17.40;2.70;;;5.20;99.90;;;;;;4909291;29;20487;-83
2022/09/29 04:13:02;;;;;;;39.38;3.30;;;5.10;99.90;;;;;;4915048;29;20444;-84
2022/09/29 04:15:28;;;;;;;36.65;4.43;;;5.10;99.90;;;;;;4928877;29;20118;-84
2022/09/29 04:17:54;;;;;;;13.80;2.58;;;5.00;99.90;;;;;;4929777;29;20039;-84
2022/09/29 04:20:20;;;;;;;63.65;4.55;;;5.00;99.90;;;;;;4926830;29;20063;-83
2022/09/29 04:22:45;;;;;;;50.97;3.75;;;4.90;99.90;;;;;;4931793;29;20113;-84
2022/09/29 04:25:11;;;;;;;50.30;4.57;;;4.90;99.90;;;;;;4941331;28;20092;-84
2022/09/29 04:27:36;;;;;;;25.92;3.50;;;4.80;99.90;;;;;;4926486;29;20040;-84
2022/09/29 04:30:03;;;;;;;16.13;3.38;;;4.90;99.90;;;;;;4907004;29;20043;-82
2022/09/29 04:32:29;;;;;;;18.98;4.10;;;4.90;99.90;;;;;;4909839;29;20475;-86
2022/09/29 04:47:37;;;;;;;10.50;3.60;;;4.40;99.90;;;;;;4979850;28;20580;-85
2022/09/29 04:50:23;;;;;;;22.83;4.55;;;4.90;99.90;;;;;;4966259;28;20684;-88
2022/09/29 05:00:17;;;;;;;26.90;4.25;;;4.80;99.90;;;;;;4970291;28;20046;-82
2022/09/29 05:02:55;;;;;;;53.83;5.15;;;4.70;99.90;;;;;;4969944;28;20046;-84
2022/09/29 05:05:24;;;;;;;49.95;5.22;;;4.80;99.90;;;;;;4971349;28;20419;-83
2022/09/29 05:08:03;;;;;;;19.75;4.95;;;4.90;99.90;;;;;;4970969;28;20051;-84
2022/09/29 05:10:30;;;;;;;33.72;6.40;;;4.70;99.90;;;;;;4956828;28;20042;-83
2022/09/29 05:12:56;;;;;;;22.65;5.00;;;4.80;99.90;;;;;;4972580;28;20192;-81
2022/09/29 05:19:21;;;;;;;19.88;4.50;;;4.80;99.90;;;;;;4977740;28;20689;-84
2022/09/29 05:21:49;;;;;;;13.65;4.82;;;4.80;99.90;;;;;;4973347;28;20054;-82
2022/09/29 05:25:07;;;;;;;11.85;5.15;;;4.90;99.90;;;;;;4960477;28;20054;-83
2022/09/29 05:28:26;;;;;;;13.10;4.72;;;4.90;99.90;;;;;;4953425;28;20049;-85
2022/09/29 05:34:56;;;;;;;12.60;3.70;;;4.90;99.90;;;;;;4988360;28;20452;-82
2022/09/29 05:37:22;;;;;;;7.85;3.55;;;4.80;99.90;;;;;;4955401;28;20042;-82
2022/09/29 05:39:49;;;;;;;7.25;4.10;;;4.80;99.90;;;;;;4972691;28;20046;-82
2022/09/29 05:42:15;;;;;;;10.43;4.60;;;4.80;99.90;;;;;;4972960;28;20066;-81
2022/09/29 05:44:40;;;;;;;23.75;4.40;;;4.90;99.90;;;;;;4986077;28;20079;-80
2022/09/29 05:47:09;;;;;;;20.95;4.13;;;4.90;99.90;;;;;;4989843;28;20295;-84
2022/09/29 05:49:35;;;;;;;6.72;3.97;;;4.90;99.90;;;;;;4976121;28;20041;-82
2022/09/29 05:52:19;;;;;;;4.35;4.00;;;5.00;99.90;;;;;;4954399;28;20086;-85
2022/09/29 05:54:50;;;;;;;8.65;3.35;;;5.10;99.90;;;;;;4974472;28;20049;-82
2022/09/29 05:57:36;;;;;;;8.48;3.95;;;5.10;99.90;;;;;;4975813;28;20166;-83
2022/09/29 06:00:51;;;;;;;8.95;3.97;;;5.10;99.90;;;;;;4960303;28;20077;-85
2022/09/29 06:06:49;;;;;;;11.13;5.13;;;5.20;99.90;;;;;;4981525;28;20057;-81
2022/09/29 06:09:15;;;;;;;18.35;5.90;;;5.30;99.90;;;;;;4956091;28;20066;-81
2022/09/29 06:11:41;;;;;;;11.23;5.00;;;5.40;99.90;;;;;;4955629;28;20082;-82
2022/09/29 06:14:06;;;;;;;7.72;4.85;;;5.50;99.90;;;;;;4974731;28;20038;-81
2022/09/29 06:16:50;;;;;;;9.88;5.72;;;5.60;99.90;;;;;;4975757;28;20038;-81
2022/09/29 06:19:16;;;;;;;6.22;4.35;;;5.70;99.90;;;;;;4958430;28;20046;-81
2022/09/29 06:21:41;;;;;;;11.05;5.50;;;5.70;99.90;;;;;;4956612;28;20045;-81
2022/09/29 06:24:07;;;;;;;36.65;5.43;;;5.80;99.90;;;;;;4972284;28;20148;-81
2022/09/29 06:26:35;;;;;;;18.45;5.93;;;5.80;99.90;;;;;;4974325;28;20061;-81
2022/09/29 06:29:02;;;;;;;24.58;7.22;;;6.00;99.90;;;;;;4955424;28;20039;-81
2022/09/29 06:31:29;;;;;;;29.95;5.95;;;6.10;99.90;;;;;;4976633;28;20671;-81
2022/09/29 06:34:03;;;;;;;23.85;6.45;;;6.30;99.90;;;;;;4975534;28;20038;-81
2022/09/29 06:39:24;;;;;;;8.15;5.00;;;6.60;99.90;;;;;;4973080;28;20052;-81
2022/09/29 06:41:55;;;;;;;12.57;4.30;;;6.80;99.90;;;;;;4975153;28;20034;-81
2022/09/29 06:44:23;;;;;;;13.18;4.75;;;7.00;99.90;;;;;;4973899;28;20038;-81
2022/09/29 06:46:54;;;;;;;10.13;4.10;;;7.50;99.90;;;;;;4978073;28;20054;-81
2022/09/29 06:49:29;;;;;;;6.18;4.18;;;7.20;99.90;;;;;;4974785;28;20153;-81
2022/09/29 06:52:00;;;;;;;6.35;4.57;;;7.30;99.90;;;;;;4975367;28;20049;-81
2022/09/29 06:54:30;;;;;;;4.65;4.25;;;7.40;99.90;;;;;;4972433;28;20038;-81
2022/09/29 06:57:11;;;;;;;4.80;4.40;;;7.50;99.90;;;;;;4983974;28;20045;-82
2022/09/29 06:59:36;;;;;;;4.00;3.70;;;8.10;99.90;;;;;;4972913;28;20038;-81
2022/09/29 07:02:08;;;;;;;4.72;4.25;;;8.40;99.90;;;;;;4968573;28;20133;-81
2022/09/29 07:04:41;;;;;;;4.32;4.03;;;8.40;99.90;;;;;;4974154;28;20042;-82
2022/09/29 07:07:08;;;;;;;5.15;4.70;;;8.40;99.90;;;;;;4961018;28;20030;-82
2022/09/29 07:09:33;;;;;;;5.15;4.72;;;8.30;99.90;;;;;;4970616;28;20069;-81
2022/09/29 07:12:02;;;;;;;5.43;4.95;;;8.60;99.90;;;;;;4973440;28;20131;-81
2022/09/29 07:14:27;;;;;;;5.80;5.30;;;8.60;99.90;;;;;;4972104;28;20405;-81
2022/09/29 07:16:53;;;;;;;5.80;5.30;;;8.60;99.90;;;;;;4972069;28;20049;-81
2022/09/29 07:19:19;;;;;;;5.75;5.25;;;8.80;99.90;;;;;;4957282;28;20042;-82
2022/09/29 07:21:45;;;;;;;6.13;5.63;;;8.80;99.90;;;;;;4955480;28;20042;-82
2022/09/29 07:24:11;;;;;;;6.88;6.28;;;9.10;99.90;;;;;;4972459;28;20038;-81
2022/09/29 07:26:37;;;;;;;6.53;5.88;;;8.80;99.90;;;;;;4973004;28;20034;-81
2022/09/29 07:29:03;;;;;;;6.32;5.82;;;8.80;99.90;;;;;;4974238;28;20092;-81
2022/09/29 07:31:28;;;;;;;6.18;5.70;;;8.80;99.90;;;;;;4989887;28;20046;-81
2022/09/29 07:33:55;;;;;;;8.20;5.65;;;9.00;99.90;;;;;;4974149;28;20125;-81
2022/09/29 07:36:21;;;;;;;7.13;6.38;;;9.40;99.90;;;;;;4956470;28;20121;-81
2022/09/29 07:38:49;;;;;;;6.13;5.53;;;9.50;99.90;;;;;;4973485;28;20125;-81
2022/09/29 07:41:15;;;;;;;6.82;6.22;;;9.40;99.90;;;;;;4970966;28;20101;-81
2022/09/29 07:43:41;;;;;;;7.30;6.68;;;9.30;99.90;;;;;;4972789;28;20030;-81
2022/09/29 07:46:08;;;;;;;8.35;6.88;;;9.20;99.90;;;;;;4957747;28;20041;-81
2022/09/29 07:48:35;;;;;;;6.88;6.28;;;9.10;99.90;;;;;;4970790;28;20085;-82
2022/09/29 07:51:15;;;;;;;8.00;7.30;;;9.10;99.90;;;;;;4971265;28;21007;-82
2022/09/29 07:53:41;;;;;;;7.75;7.05;;;9.00;99.90;;;;;;4971985;28;20038;-82
2022/09/29 07:56:19;;;;;;;8.63;7.93;;;8.90;99.90;;;;;;4953032;28;20057;-82
2022/09/29 07:58:49;;;;;;;7.97;7.28;;;8.90;99.90;;;;;;4973536;28;20082;-81
2022/09/29 08:01:16;;;;;;;10.82;9.05;;;8.90;99.90;;;;;;4988639;28;20100;-82
2022/09/29 08:03:46;;;;;;;9.32;8.18;;;9.30;99.90;;;;;;4989803;28;20130;-82
2022/09/29 08:06:11;;;;;;;8.85;8.05;;;8.90;99.90;;;;;;4971991;28;20129;-82
2022/09/29 08:08:38;;;;;;;10.32;9.43;;;8.90;99.90;;;;;;5001868;28;20129;-82
2022/09/29 08:11:09;;;;;;;9.57;8.57;;;8.90;99.90;;;;;;4986141;28;20043;-82
2022/09/29 08:13:36;;;;;;;9.77;8.38;;;9.00;99.90;;;;;;5004111;28;20050;-82
2022/09/29 08:16:04;;;;;;;10.35;9.45;;;9.00;99.90;;;;;;4970377;28;20038;-82
2022/09/29 08:18:31;;;;;;;10.02;9.23;;;9.20;99.90;;;;;;4987563;28;20093;-82
2022/09/29 08:20:57;;;;;;;12.45;11.23;;;9.10;99.90;;;;;;4972131;28;20052;-82
2022/09/29 08:23:23;;;;;;;10.23;9.32;;;9.20;99.90;;;;;;4988306;28;20070;-81
2022/09/29 08:26:06;;;;;;;11.27;10.00;;;9.30;99.90;;;;;;4957081;28;20066;-82
2022/09/29 08:28:33;;;;;;;10.07;9.10;;;9.40;99.90;;;;;;4970809;28;20088;-82
2022/09/29 08:31:07;;;;;;;10.68;9.60;;;9.40;99.90;;;;;;4993226;28;20050;-82
2022/09/29 08:33:34;;;;;;;10.32;9.43;;;9.50;99.90;;;;;;4991552;28;20034;-82
2022/09/29 08:36:02;;;;;;;9.65;8.45;;;9.60;99.90;;;;;;4975343;28;20098;-82
2022/09/29 08:38:28;;;;;;;9.25;8.35;;;9.70;99.90;;;;;;4974872;28;20104;-82
2022/09/29 08:40:55;;;;;;;10.15;8.38;;;9.80;99.90;;;;;;5007530;28;20043;-82
2022/09/29 08:43:30;;;;;;;9.57;8.68;;;9.90;99.90;;;;;;4976831;28;20050;-82
2022/09/29 08:45:58;;;;;;;9.23;7.80;;;10.00;99.90;;;;;;5008088;28;20402;-82
2022/09/29 08:48:26;;;;;;;7.90;6.85;;;10.20;99.90;;;;;;4972561;28;20494;-82
2022/09/29 08:51:02;;;;;;;8.27;6.75;;;10.20;99.90;;;;;;4973779;28;20097;-82
2022/09/29 08:53:32;;;;;;;9.40;7.20;;;10.40;99.90;;;;;;4956126;28;20401;-82
2022/09/29 08:56:25;;;;;;;8.65;7.13;;;10.80;99.90;;;;;;4968029;28;20034;-82
2022/09/29 08:58:51;;;;;;;9.75;6.50;;;10.60;99.90;;;;;;4973172;28;20065;-82
2022/09/29 09:01:26;;;;;;;7.18;6.43;;;10.90;99.90;;;;;;4975745;28;20042;-82
2022/09/29 09:04:07;;;;;;;6.28;5.75;;;11.00;99.90;;;;;;4976527;28;20061;-82
2022/09/29 09:07:12;;;;;;;6.13;5.53;;;11.10;99.90;;;;;;4952425;28;20083;-82
2022/09/29 09:10:07;;;;;;;8.32;5.80;;;10.90;99.90;;;;;;4972876;28;20046;-82
2022/09/29 09:12:50;;;;;;;7.82;5.50;;;11.40;99.90;;;;;;4971763;28;20152;-82
2022/09/29 09:15:39;;;;;;;7.82;4.88;;;11.60;99.90;;;;;;4967973;28;20061;-82
2022/09/29 09:18:28;;;;;;;6.05;5.35;;;11.80;99.90;;;;;;4976220;28;20046;-82
2022/09/29 09:21:16;;;;;;;5.03;4.63;;;11.80;99.90;;;;;;4966895;28;20047;-82
2022/09/29 09:23:53;;;;;;;5.53;5.03;;;11.90;99.90;;;;;;4972114;28;20049;-82
2022/09/29 09:26:26;;;;;;;5.43;4.60;;;11.90;99.90;;;;;;4991535;28;20046;-82
2022/09/29 09:28:57;;;;;;;6.53;5.90;;;12.10;99.90;;;;;;4973611;28;20496;-83
2022/09/29 09:31:32;;;;;;;5.28;4.85;;;12.20;99.90;;;;;;4972542;28;20042;-82
2022/09/29 09:34:06;;;;;;;7.35;5.10;;;12.30;99.90;;;;;;5006486;28;20038;-82
2022/09/29 09:36:50;;;;;;;4.63;4.15;;;12.30;99.90;;;;;;4992761;28;20088;-82
2022/09/29 09:39:27;;;;;;;5.47;4.75;;;12.40;99.90;;;;;;4973281;28;20042;-83
2022/09/29 09:41:58;;;;;;;5.40;4.90;;;12.60;99.90;;;;;;4972638;28;20042;-82
2022/09/29 09:44:39;;;;;;;6.20;5.05;;;12.60;99.90;;;;;;4991622;28;20603;-82
2022/09/29 09:47:36;;;;;;;4.97;4.53;;;12.70;99.90;;;;;;4972198;28;20042;-83
2022/09/29 09:50:14;;;;;;;5.18;4.68;;;12.90;99.90;;;;;;4957150;28;20073;-83
2022/09/29 12:49:10;;;;;;;3.17;1.10;;;17.20;99.90;;;;;;3349417;23;20093;-82
2022/09/29 12:51:52;;;;;;;1.98;1.00;;;17.30;99.90;;;;;;4987792;28;20046;-83
2022/09/29 12:54:49;;;;;;;1.35;0.70;;;17.50;99.90;;;;;;4999609;28;20041;-83
2022/09/29 13:04:59;;;;;;;1.60;0.93;;;17.40;99.90;;;;;;4963832;23;20043;-82
2022/09/29 13:07:34;;;;;;;0.98;0.90;;;17.10;99.90;;;;;;4876643;29;20104;-82
2022/09/29 13:10:19;;;;;;;4.50;0.77;;;16.90;99.90;;;;;;4977036;28;20050;-82
2022/09/29 13:13:22;;;;;;;1.83;0.70;;;16.80;99.90;;;;;;4931747;28;20054;-82
2022/09/29 13:16:11;;;;;;;0.98;0.60;;;16.70;99.90;;;;;;4956822;28;20094;-83
2022/09/29 13:19:43;;;;;;;0.50;0.20;;;17.10;99.90;;;;;;4915410;29;20055;-82
2022/09/29 13:44:35;;;;;;;0.60;0.50;;;17.90;99.90;;;;;;5742488;23;20464;-83
2022/09/29 14:21:14;;;;;;;;;;;;;;;;;;;;;
2022/09/29 14:26:55;;;;;;;0.45;0.20;;;16.60;99.90;;;;;;5155866;23;20125;-83
2022/09/29 14:30:05;;;;;;;4.20;0.28;;;16.60;99.90;;;;;;4943364;28;20101;-83
2022/09/29 14:54:46;;;;;;;;;;;;;;;;;;;;;
2022/09/29 15:01:44;;;;;;;0.63;0.20;;;15.70;99.90;;;;;;4920612;28;20057;-84
2022/09/29 15:05:11;;;;;;;1.33;0.22;;;15.50;99.90;;;;;;4945400;28;20502;-84
2022/09/29 15:08:43;;;;;;;0.90;0.40;;;15.30;99.90;;;;;;4852816;29;20057;-84
2022/09/29 15:11:51;;;;;;;2.58;0.35;;;15.10;99.90;;;;;;4853936;29;20047;-84
2022/09/29 15:15:11;;;;;;;1.45;0.80;;;14.90;99.90;;;;;;4921536;29;20130;-85
2022/09/29 15:18:37;;;;;;;3.70;0.40;;;14.70;99.90;;;;;;4858816;29;20554;-84
2022/09/29 15:22:00;;;;;;;3.72;0.43;;;14.60;99.90;;;;;;4824373;29;20086;-84
2022/09/29 15:24:52;;;;;;;0.75;0.35;;;14.40;99.90;;;;;;4834172;29;20080;-83
2022/09/29 15:27:39;;;;;;;0.90;0.40;;;14.30;99.90;;;;;;4853158;29;20052;-86
2022/09/29 15:30:31;;;;;;;1.40;0.52;;;14.20;99.90;;;;;;4873176;29;20075;-85
2022/09/29 15:35:51;;;;;;;1.23;0.80;;;14.00;99.90;;;;;;5035800;23;20065;-83
2022/09/29 15:40:03;;;;;;;1.95;0.60;;;13.90;99.90;;;;;;4971294;28;20161;-85
2022/09/29 16:02:05;;;;;;;2.05;0.65;;;13.40;99.90;;;;;;4853894;29;20078;-86
2022/09/29 16:05:15;;;;;;;;;;;;;;;;;;;;;
2022/09/29 16:08:31;;;;;;;1.10;0.68;;;13.50;99.90;;;;;;4844259;29;20089;-85
2022/09/29 16:11:32;;;;;;;5.10;0.95;;;13.40;99.90;;;;;;4818721;29;20532;-86
2022/09/29 16:15:01;;;;;;;2.38;1.02;;;13.40;99.90;;;;;;4892087;29;20044;-86
2022/09/29 16:18:13;;;;;;;2.95;1.05;;;13.40;99.90;;;;;;4904791;29;20123;-86
2022/09/29 16:25:43;;;;;;;2.67;0.77;;;13.30;99.90;;;;;;4996598;28;20056;-85
2022/09/29 16:39:35;;;;;;;2.63;0.50;;;13.10;99.90;;;;;;4928225;29;20127;-89
2022/09/29 16:50:59;;;;;;;1.88;0.47;;;12.90;99.90;;;;;;4874194;29;20170;-84
2022/09/29 16:53:47;;;;;;;1.27;0.38;;;13.00;99.90;;;;;;4901450;29;20043;-83
2022/09/29 16:57:21;;;;;;;1.73;0.60;;;12.80;99.90;;;;;;4912023;29;20043;-84
2022/09/29 17:04:45;;;;;;;4.65;0.40;;;12.70;99.90;;;;;;4909061;29;20070;-85
2022/09/29 17:07:18;;;;;;;1.40;0.43;;;12.60;99.90;;;;;;4907947;29;20052;-85
2022/09/29 17:10:25;;;;;;;0.88;0.40;;;12.60;99.90;;;;;;4908108;29;20063;-84
2022/09/29 17:13:46;;;;;;;1.27;0.50;;;12.50;99.90;;;;;;4918116;29;20684;-84
2022/09/29 17:16:19;;;;;;;1.48;0.60;;;12.50;99.90;;;;;;4930902;29;20057;-85
2022/09/29 17:19:00;;;;;;;1.05;0.50;;;12.40;99.90;;;;;;4999365;28;20578;-84
2022/09/29 17:21:56;;;;;;;;;;;12.40;99.90;;;;;;4992587;28;20034;-83
2022/09/29 23:44:53;;;;;;;0.98;0.57;;;9.30;99.90;;;;;;4984189;28;20084;-85
2022/09/29 23:47:19;;;;;;;1.95;0.98;;;8.60;99.90;;;;;;4952175;28;20046;-85
